Natchez, MS

6:02 AM CDT on March 27, 2015 (GMT -0500)
Hardy-Anders-Adams County | | Change Station
CLOSE
Current Station
Airport
Location: Natchez,
Elevation: 272 ft
Nearby Weather Stations
Active Advisory: Flood Warning

Elev 272 ft 31.62 °N, 91.30 °W | Updated 7 minutes ago

Clear
Clear
41 °F
Feels Like 41 °F
N
0
Wind Variable Wind from North

Today
High -- | Low -- °F
--% Chance of Precip.
Yesterday
High -- | Low -- °F
Precip. -- in
7:00 AM 7:21 PM
First Quarter, 51% visible
Pressure 30.05 in
Visibility 10.0 miles
Clouds Clear
Dew Point 36 °F
Humidity 81%
Rainfall 0.00 in
Snow Depth Not available.
UV 0 out of 12
Pollen 9.50 out of 12
Air Quality Not available.
Flu Activity Not available.
METAR KHEZ 271055Z AUTO 00000KT 10SM CLR 05/02 A3005 RMK AO1

More Conditions Fewer Conditions

Pressure 30.05 in
Visibility 10.0 miles
Clouds Clear
Dew Point 36 °F
Humidity 81%
Rainfall 0.00 in
Snow Depth Not available.
UV 0 out of 12
Pollen 9.50 out of 12
Air Quality Not available.
Flu Activity Not available.
METAR KHEZ 271055Z AUTO 00000KT 10SM CLR 05/02 A3005 RMK AO1

More Conditions Fewer Conditions

10-Day Weather Forecast

Almanac

Astronomy

Mar. 27, 2015 Rise Set
Actual Time
Civil Twilight
Nautical Twilight
Astronomical Twilight
Moon
Length of Visible Light
Length of Day
Tomorrow will be .
, % of the Moon is Illuminated

Today's Extremes

State Highs State Lows

Community

WunderPhotos

Upload Photos

1,808,707 photos uploaded!

WunderBlogs® & News

Nearby

Air Quality

  Air Quality AQ Index Pollutant
Not available.

Snow Depth

Station Depth Elevation

Earthquake Activity

City Distance Mag. Time & Date
Minimum magnitude displayed is 2.5.

Coastal Water Temperatures

Place Temperature

Stations

Nearby Weather Stations

Station Location Temp. Windchill Dew Point Humidity Wind Precip. Elev Updated Type
                   
Flood Warning
Statement as of 9:43 PM CDT on March 26, 2015


The Flood Warning continues for
the Mississippi River at Natchez
* until further notice.
* At 9:00 PM Thursday the stage was 48.8 feet and slowly rising.
* Minor flooding is occurring and minor flooding is forecast.
* Flood stage is 48 feet.
* Forecast... the river will continue rising to a crest near 49.5 feet
by Monday.
* Impact... at 48 feet... Carthage Point Road becomes impassable.
* Impact... at 47 feet... water begins to enter the former Belwood
Golf course and Carthage Point Road area south of Natchez.
* Impact... at 45 feet... water under some buildings around Fort
Adams, Mississippi.


              Flood observed forecast 7 am crest
location stg stg day time Fri Sat sun crest time date

Lower Mississippi River
Natchez 48 48.8 Thu 9 PM 48.9 49.2 49.4 49.5 7 am 3/30



Lat... Lon 3101 9170 3130 9167 3193 9129 3187 9114
      3130 9147 3100 9154




Dl